Time;durP1;ratioP1;P1;durP2;ratioP2;P2;SDS_P1;SDS_P2;PMS_P1;PMS_P2;Temp;Humidity;BMP_temperature;BMP_pressure;BME280_temperature;BME280_humidity;BME280_pressure;Samples;Min_cycle;Max_cycle;Signal;HPM_P1;HPM_P2
2022/04/21 00:00:12;;;;;;;15.15;5.25;;;7.60;99.90;;;;;;5052511;28;20144;-75
2022/04/21 00:02:38;;;;;;;17.15;6.22;;;7.60;99.90;;;;;;5053665;28;20075;-74
2022/04/21 00:05:05;;;;;;;16.93;5.60;;;7.50;99.90;;;;;;5019485;28;20037;-75
2022/04/21 00:07:31;;;;;;;15.57;6.55;;;7.60;99.90;;;;;;5035679;28;20052;-74
2022/04/21 00:09:57;;;;;;;14.15;6.00;;;7.50;99.90;;;;;;5052913;28;20048;-74
2022/04/21 00:12:23;;;;;;;13.85;6.00;;;7.50;99.90;;;;;;5053850;28;20462;-74
2022/04/21 00:14:50;;;;;;;17.55;5.75;;;7.50;99.90;;;;;;5052373;28;20045;-75
2022/04/21 00:17:16;;;;;;;15.18;6.10;;;7.60;99.90;;;;;;5019960;28;20049;-75
2022/04/21 00:19:41;;;;;;;12.52;5.50;;;7.50;99.90;;;;;;5002281;28;20056;-75
2022/04/21 00:24:54;;;;;;;14.75;5.70;;;7.50;99.90;;;;;;5052696;28;20052;-74
2022/04/21 00:27:20;;;;;;;13.98;5.53;;;7.50;99.90;;;;;;5018929;28;20049;-75
2022/04/21 00:29:46;;;;;;;16.90;5.88;;;7.50;99.90;;;;;;5033099;28;20325;-75
2022/04/21 00:32:13;;;;;;;15.32;6.28;;;7.50;99.90;;;;;;5053144;28;20051;-75
2022/04/21 00:34:38;;;;;;;13.00;5.50;;;7.40;99.90;;;;;;5018648;28;20049;-75
2022/04/21 00:37:05;;;;;;;13.68;5.53;;;7.40;99.90;;;;;;5052636;28;20075;-75
2022/04/21 00:39:32;;;;;;;14.55;5.75;;;7.40;99.90;;;;;;5052953;28;20045;-74
2022/04/21 00:41:59;;;;;;;12.43;5.57;;;7.30;99.90;;;;;;5034612;28;20167;-74
2022/04/21 00:44:26;;;;;;;17.77;6.85;;;7.30;99.90;;;;;;5037463;28;20133;-75
2022/04/21 00:46:55;;;;;;;15.13;6.13;;;7.30;99.90;;;;;;5036217;28;20056;-74
2022/04/21 00:49:21;;;;;;;12.57;5.25;;;7.20;99.90;;;;;;5049205;28;20045;-74
2022/04/21 00:51:49;;;;;;;16.03;6.20;;;7.20;99.90;;;;;;5034724;28;20060;-74
2022/04/21 00:54:16;;;;;;;13.77;5.40;;;7.10;99.90;;;;;;5034730;28;20365;-75
2022/04/21 00:56:44;;;;;;;14.38;6.07;;;7.10;99.90;;;;;;5053842;28;20051;-75
2022/04/21 00:59:11;;;;;;;12.48;5.78;;;7.10;99.90;;;;;;5034802;28;20103;-75
2022/04/21 01:04:24;;;;;;;14.90;6.30;;;7.00;99.90;;;;;;5052631;28;20057;-74
2022/04/21 01:06:54;;;;;;;15.13;6.03;;;6.90;99.90;;;;;;5034398;28;20342;-73
2022/04/21 01:09:20;;;;;;;14.48;6.07;;;6.90;99.90;;;;;;5052716;28;20377;-73
2022/04/21 01:11:47;;;;;;;14.65;6.53;;;6.90;99.90;;;;;;5034137;28;20045;-74
2022/04/21 01:14:16;;;;;;;15.15;7.28;;;6.90;99.90;;;;;;5001922;28;20179;-74
2022/04/21 01:16:43;;;;;;;15.10;6.90;;;6.80;99.90;;;;;;5000627;28;20061;-74
2022/04/21 01:19:09;;;;;;;16.87;6.93;;;6.80;99.90;;;;;;5034001;28;20056;-74
2022/04/21 01:21:35;;;;;;;17.30;6.88;;;6.80;99.90;;;;;;5034150;28;20052;-74
2022/04/21 01:24:01;;;;;;;14.60;6.85;;;6.80;99.90;;;;;;5051767;28;20048;-75
2022/04/21 01:26:35;;;;;;;16.93;7.13;;;6.80;99.90;;;;;;5035573;28;20052;-75
2022/04/21 01:29:03;;;;;;;15.73;7.28;;;6.90;99.90;;;;;;5036999;28;20337;-75
2022/04/21 01:31:29;;;;;;;15.32;6.57;;;6.80;99.90;;;;;;5035925;28;20052;-75
2022/04/21 01:33:55;;;;;;;18.15;8.05;;;6.80;99.90;;;;;;5035409;28;20114;-75
2022/04/21 01:36:21;;;;;;;19.48;9.20;;;6.70;99.90;;;;;;5035191;28;20096;-75
2022/04/21 01:41:31;;;;;;;19.83;8.68;;;6.60;99.90;;;;;;5053470;28;20057;-74
2022/04/21 01:43:56;;;;;;;16.55;8.23;;;6.60;99.90;;;;;;5035106;28;20048;-75
2022/04/21 01:46:22;;;;;;;15.73;6.35;;;6.60;99.90;;;;;;5053860;28;20063;-74
2022/04/21 01:48:48;;;;;;;16.17;6.85;;;6.60;99.90;;;;;;5035379;28;20049;-75
2022/04/21 01:51:14;;;;;;;15.50;6.88;;;6.50;99.90;;;;;;5035162;28;20507;-75
2022/04/21 01:53:40;;;;;;;17.80;7.35;;;6.50;99.90;;;;;;5053077;28;20045;-76
2022/04/21 01:56:06;;;;;;;18.65;7.30;;;6.40;99.90;;;;;;5018137;28;20106;-76
2022/04/21 01:58:31;;;;;;;19.67;7.45;;;6.40;99.90;;;;;;5018596;28;20057;-75
2022/04/21 02:00:57;;;;;;;22.35;7.35;;;6.40;99.90;;;;;;5052846;28;20139;-74
2022/04/21 02:03:23;;;;;;;19.42;6.88;;;6.40;99.90;;;;;;5035056;28;20122;-74
2022/04/21 02:05:49;;;;;;;13.13;6.80;;;6.40;99.90;;;;;;5052807;28;20107;-74
2022/04/21 02:08:15;;;;;;;16.33;7.20;;;6.30;99.90;;;;;;5052535;28;20045;-76
2022/04/21 02:10:41;;;;;;;16.67;7.97;;;6.30;99.90;;;;;;5052728;28;20059;-75
2022/04/21 02:13:07;;;;;;;17.73;8.27;;;6.30;99.90;;;;;;5052779;28;20064;-75
2022/04/21 02:15:32;;;;;;;20.75;7.93;;;6.40;99.90;;;;;;5035467;28;20041;-74
2022/04/21 02:18:01;;;;;;;20.77;7.78;;;6.40;99.90;;;;;;5052438;28;20461;-75
2022/04/21 02:20:27;;;;;;;17.90;7.90;;;6.30;99.90;;;;;;5034728;28;20051;-76
2022/04/21 02:22:53;;;;;;;18.83;7.65;;;6.20;99.90;;;;;;5052681;28;20053;-75
2022/04/21 02:25:19;;;;;;;18.35;8.07;;;6.20;99.90;;;;;;5018539;28;20051;-75
2022/04/21 02:27:47;;;;;;;17.70;8.07;;;6.10;99.90;;;;;;5034756;28;20128;-76
2022/04/21 02:30:15;;;;;;;16.95;8.23;;;6.10;99.90;;;;;;5034507;28;20136;-75
2022/04/21 02:32:42;;;;;;;16.23;7.65;;;6.00;99.90;;;;;;5034550;28;20045;-76
2022/04/21 02:35:09;;;;;;;21.40;8.10;;;6.00;99.90;;;;;;5052068;28;20048;-75
2022/04/21 02:37:40;;;;;;;17.88;7.97;;;6.00;99.90;;;;;;5034956;28;20057;-75
2022/04/21 02:40:08;;;;;;;17.55;8.38;;;6.00;99.90;;;;;;5034991;28;20128;-75
2022/04/21 02:42:34;;;;;;;19.45;8.88;;;6.00;99.90;;;;;;5018283;28;20051;-75
2022/04/21 02:45:00;;;;;;;19.83;8.95;;;6.00;99.90;;;;;;5052205;28;20419;-74
2022/04/21 02:47:26;;;;;;;19.00;8.88;;;6.00;99.90;;;;;;5034576;28;20099;-75
2022/04/21 02:49:53;;;;;;;20.93;8.50;;;6.00;99.90;;;;;;5052416;28;20044;-75
2022/04/21 02:52:20;;;;;;;19.13;8.60;;;6.00;99.90;;;;;;5034162;28;20049;-75
2022/04/21 02:57:32;;;;;;;26.92;11.80;;;6.00;99.90;;;;;;5034857;28;20057;-75
2022/04/21 03:00:00;;;;;;;24.60;10.23;;;5.90;99.90;;;;;;5052668;28;20234;-76
2022/04/21 03:02:27;;;;;;;24.33;10.55;;;6.00;99.90;;;;;;5035099;28;20049;-75
2022/04/21 03:04:52;;;;;;;27.03;9.53;;;5.90;99.90;;;;;;5034711;28;20048;-75
2022/04/21 03:07:22;;;;;;;22.73;9.55;;;6.00;99.90;;;;;;5034303;28;20573;-75
2022/04/21 03:09:55;;;;;;;24.48;10.25;;;6.00;99.90;;;;;;5034263;28;20087;-75
2022/04/21 03:12:26;;;;;;;24.10;10.77;;;6.00;99.90;;;;;;5020101;28;20088;-73
2022/04/21 03:14:53;;;;;;;24.73;10.93;;;6.00;99.90;;;;;;5021858;28;20560;-75
2022/04/21 03:17:19;;;;;;;28.90;11.00;;;6.00;99.90;;;;;;5021907;28;20048;-74
2022/04/21 03:19:45;;;;;;;27.58;10.75;;;6.00;99.90;;;;;;5038349;28;20094;-74
2022/04/21 03:25:03;;;;;;;27.52;10.40;;;5.90;99.90;;;;;;5041341;28;20052;-75
2022/04/21 03:27:29;;;;;;;22.58;10.52;;;5.90;99.90;;;;;;5056299;28;20056;-75
2022/04/21 03:30:06;;;;;;;25.15;11.15;;;5.90;99.90;;;;;;5056016;28;20049;-76
2022/04/21 03:32:32;;;;;;;;;;;6.00;99.90;;;;;;5022273;28;20059;-74
2022/04/21 03:35:00;;;;;;;24.50;10.52;;;5.90;99.90;;;;;;5055811;28;20015;-74
2022/04/21 03:37:27;;;;;;;27.23;11.02;;;5.90;99.90;;;;;;5037504;28;20068;-75
2022/04/21 03:39:52;;;;;;;28.95;11.57;;;5.90;99.90;;;;;;5038022;28;20095;-75
2022/04/21 03:42:24;;;;;;;28.50;11.00;;;5.90;99.90;;;;;;5038454;28;20393;-75
2022/04/21 03:44:50;;;;;;;21.13;10.50;;;5.90;99.90;;;;;;5038193;28;20611;-75
2022/04/21 03:47:16;;;;;;;26.15;10.98;;;5.80;99.90;;;;;;5037736;28;20446;-75
2022/04/21 03:49:42;;;;;;;26.63;10.48;;;5.80;99.90;;;;;;5037767;28;20128;-75
2022/04/21 03:52:10;;;;;;;27.83;12.13;;;5.80;99.90;;;;;;5055827;28;20143;-75
2022/04/21 03:54:37;;;;;;;26.70;11.63;;;5.70;99.90;;;;;;5037858;28;20052;-76
2022/04/21 03:57:03;;;;;;;;;;;5.80;99.90;;;;;;5038349;28;20056;-75
2022/04/21 03:59:29;;;;;;;25.25;10.30;;;5.80;99.90;;;;;;5055979;28;19920;-75
2022/04/21 04:02:01;;;;;;;27.55;11.57;;;5.70;99.90;;;;;;5038460;28;20110;-76
2022/04/21 04:04:37;;;;;;;23.27;10.90;;;5.70;99.90;;;;;;5023332;28;20111;-75
2022/04/21 04:12:53;;;;;;;27.13;10.52;;;5.70;99.90;;;;;;4974734;28;20129;-74
2022/04/21 04:15:21;;;;;;;26.35;10.50;;;5.60;99.90;;;;;;4958721;28;20133;-75
2022/04/21 04:17:47;;;;;;;21.02;10.98;;;5.60;99.90;;;;;;4997101;28;20060;-74
2022/04/21 04:20:13;;;;;;;24.90;10.38;;;5.60;99.90;;;;;;5037548;28;20048;-74
2022/04/21 04:22:42;;;;;;;25.60;11.52;;;5.70;99.90;;;;;;5037134;28;20409;-74
2022/04/21 04:25:11;;;;;;;31.25;11.45;;;5.60;99.90;;;;;;5055582;28;20052;-76
2022/04/21 04:27:37;;;;;;;26.48;12.00;;;5.70;99.90;;;;;;5055505;28;20409;-74
2022/04/21 04:30:08;;;;;;;28.98;11.32;;;5.60;99.90;;;;;;5037217;28;20048;-74
2022/04/21 04:32:34;;;;;;;22.42;10.60;;;5.70;99.90;;;;;;5020633;28;20057;-75
2022/04/21 04:35:00;;;;;;;27.53;10.67;;;5.70;99.90;;;;;;5055060;28;20088;-75
2022/04/21 04:37:26;;;;;;;24.33;11.32;;;5.70;99.90;;;;;;5037143;28;20119;-74
2022/04/21 04:39:53;;;;;;;25.27;10.30;;;5.80;99.90;;;;;;5055792;28;20105;-76
2022/04/21 04:42:22;;;;;;;25.55;11.00;;;5.80;99.90;;;;;;5055113;28;20049;-76
2022/04/21 04:46:34;;;;;;;25.38;11.07;;;5.80;99.90;;;;;;5055899;28;20048;-74
2022/04/21 04:47:39;;;;;;;24.02;10.70;;;5.80;99.90;;;;;;5053541;28;20342;-74
2022/04/21 04:50:06;;;;;;;28.17;11.38;;;5.80;99.90;;;;;;5036321;28;20512;-74
2022/04/21 04:52:32;;;;;;;28.42;11.45;;;6.00;99.90;;;;;;5036848;28;20057;-75
2022/04/21 04:54:58;;;;;;;25.10;11.33;;;6.10;99.90;;;;;;5037015;28;20045;-75
2022/04/21 04:57:24;;;;;;;27.83;11.05;;;6.20;99.90;;;;;;5036256;28;20079;-75
2022/04/21 04:59:50;;;;;;;24.63;10.75;;;6.30;99.90;;;;;;5054408;28;20049;-74
2022/04/21 05:02:20;;;;;;;25.95;11.55;;;6.50;99.90;;;;;;5054157;28;20049;-75
2022/04/21 05:04:47;;;;;;;24.50;10.57;;;6.50;99.90;;;;;;5054641;28;20044;-75
2022/04/21 05:07:13;;;;;;;21.92;10.35;;;6.60;99.90;;;;;;5037118;28;20083;-74
2022/04/21 05:09:39;;;;;;;22.25;10.45;;;6.60;99.90;;;;;;5035657;28;20133;-75
2022/04/21 05:12:06;;;;;;;25.60;10.45;;;6.70;99.90;;;;;;5054297;28;20049;-74
2022/04/21 05:14:32;;;;;;;23.27;10.90;;;6.80;99.90;;;;;;5054180;28;20083;-74
2022/04/21 05:16:58;;;;;;;25.50;11.02;;;6.80;99.90;;;;;;5053946;28;20041;-75
2022/04/21 05:19:24;;;;;;;25.23;10.60;;;6.80;99.90;;;;;;5053796;28;20041;-76
2022/04/21 05:21:50;;;;;;;26.00;10.90;;;6.90;99.90;;;;;;5019607;28;20049;-75
2022/04/21 05:24:17;;;;;;;23.33;10.82;;;6.90;99.90;;;;;;5053363;28;20496;-75
2022/04/21 05:26:45;;;;;;;24.58;11.02;;;7.00;99.90;;;;;;5019276;28;20512;-75
2022/04/21 05:32:03;;;;;;;28.38;11.27;;;7.10;99.90;;;;;;5054300;28;20097;-75
2022/04/21 05:34:30;;;;;;;19.70;10.05;;;7.20;99.90;;;;;;5053979;28;20179;-76
2022/04/21 05:37:00;;;;;;;;;;;7.30;99.90;;;;;;5032958;28;20069;-75
2022/04/21 05:39:29;;;;;;;20.65;9.32;;;7.30;99.90;;;;;;5034058;28;20015;-76
2022/04/21 05:42:00;;;;;;;25.10;10.43;;;7.40;99.90;;;;;;5016240;28;20046;-76
2022/04/21 05:44:27;;;;;;;21.02;10.55;;;7.40;99.90;;;;;;5033067;28;20478;-75
2022/04/21 05:46:53;;;;;;;21.90;10.25;;;7.50;99.90;;;;;;5033316;28;20128;-75
2022/04/21 05:49:20;;;;;;;26.50;10.02;;;7.60;99.90;;;;;;5033062;28;20338;-75
2022/04/21 05:51:46;;;;;;;24.02;10.30;;;7.60;99.90;;;;;;5033267;28;20442;-74
2022/04/21 05:54:14;;;;;;;23.70;9.93;;;7.60;99.90;;;;;;5032193;28;20045;-75
2022/04/21 05:56:40;;;;;;;21.15;10.05;;;7.60;99.90;;;;;;5033432;28;20446;-75
2022/04/21 05:59:05;;;;;;;21.00;10.32;;;7.70;99.90;;;;;;5031813;28;20128;-75
2022/04/21 06:01:31;;;;;;;20.92;9.50;;;7.80;99.90;;;;;;5032994;28;20045;-75
2022/04/21 06:03:57;;;;;;;20.33;9.63;;;7.90;99.90;;;;;;5032915;28;20478;-75
2022/04/21 06:06:23;;;;;;;22.65;10.18;;;7.90;99.90;;;;;;5015496;28;20045;-74
2022/04/21 06:08:48;;;;;;;19.63;9.35;;;8.00;99.90;;;;;;5031661;28;20041;-75
2022/04/21 06:11:14;;;;;;;20.08;9.30;;;8.10;99.90;;;;;;5032336;28;20377;-76
2022/04/21 06:13:41;;;;;;;19.63;9.25;;;8.10;99.90;;;;;;5016049;28;20063;-75
2022/04/21 06:16:07;;;;;;;19.60;8.15;;;8.20;99.90;;;;;;5032177;28;20311;-74
2022/04/21 06:18:39;;;;;;;23.17;9.40;;;8.30;99.90;;;;;;5032993;28;20045;-75
2022/04/21 06:21:09;;;;;;;18.42;8.88;;;8.40;99.90;;;;;;5032684;28;20045;-75
2022/04/21 06:23:35;;;;;;;17.63;8.50;;;8.50;99.90;;;;;;5031173;28;20417;-75
2022/04/21 06:26:03;;;;;;;19.08;9.18;;;8.40;99.90;;;;;;5031048;28;20076;-74
2022/04/21 06:28:29;;;;;;;20.63;8.60;;;8.50;99.90;;;;;;5014841;28;20461;-74
2022/04/21 06:30:55;;;;;;;16.40;8.57;;;8.50;99.90;;;;;;5032434;28;20041;-75
2022/04/21 06:33:21;;;;;;;19.17;8.52;;;8.60;99.90;;;;;;5014638;28;20053;-74
2022/04/21 06:35:47;;;;;;;15.35;7.53;;;8.70;99.90;;;;;;5037723;28;20068;-76
2022/04/21 06:38:14;;;;;;;16.08;7.15;;;8.90;99.90;;;;;;5052160;28;20159;-75
2022/04/21 06:40:40;;;;;;;20.38;8.48;;;8.90;99.90;;;;;;5034478;28;20060;-75
2022/04/21 06:48:36;;;;;;;15.98;7.03;;;9.10;99.90;;;;;;5020566;28;20470;-74
2022/04/21 06:51:04;;;;;;;19.40;7.53;;;9.20;99.90;;;;;;5017884;28;20053;-75
2022/04/21 06:53:30;;;;;;;18.45;7.28;;;9.20;99.90;;;;;;5051945;28;20057;-75
2022/04/21 06:55:56;;;;;;;13.93;6.78;;;9.40;99.90;;;;;;5034215;28;20503;-75
2022/04/21 06:58:22;;;;;;;16.33;6.40;;;9.40;99.90;;;;;;5034210;28;20496;-74
2022/04/21 07:00:48;;;;;;;16.42;6.68;;;9.50;99.90;;;;;;5034475;28;20094;-74
2022/04/21 07:03:14;;;;;;;15.60;6.10;;;9.60;99.90;;;;;;5034845;28;20045;-74
2022/04/21 07:05:39;;;;;;;14.63;5.93;;;9.70;99.90;;;;;;5034464;28;20048;-75
2022/04/21 07:08:07;;;;;;;12.48;5.90;;;9.80;99.90;;;;;;5034271;28;20431;-75
2022/04/21 07:10:33;;;;;;;13.68;6.18;;;9.80;99.90;;;;;;5034577;28;20046;-74
2022/04/21 07:12:59;;;;;;;10.27;5.25;;;10.00;99.90;;;;;;5017685;28;20476;-74
2022/04/21 07:15:25;;;;;;;10.40;5.57;;;10.00;99.90;;;;;;5051969;28;20102;-74
2022/04/21 07:17:52;;;;;;;11.70;5.50;;;10.10;99.90;;;;;;5034306;28;20113;-75
2022/04/21 07:20:18;;;;;;;;;;;10.20;99.90;;;;;;5017833;28;20631;-74
2022/04/21 07:22:44;;;;;;;13.55;4.97;;;10.30;99.90;;;;;;5051873;28;19927;-75
2022/04/21 07:25:10;;;;;;;11.50;5.78;;;10.40;99.90;;;;;;5034046;28;20045;-76
2022/04/21 07:27:37;;;;;;;11.45;5.70;;;10.40;99.90;;;;;;5001626;28;20556;-74
2022/04/21 07:30:05;;;;;;;12.70;5.03;;;10.50;99.90;;;;;;5033846;28;20412;-75
2022/04/21 07:32:30;;;;;;;11.32;4.78;;;10.60;99.90;;;;;;5033937;28;20059;-74
2022/04/21 07:35:00;;;;;;;13.13;4.85;;;10.70;99.90;;;;;;5051560;28;20123;-75
2022/04/21 07:37:26;;;;;;;9.57;5.05;;;10.80;99.90;;;;;;5030779;28;20081;-75
2022/04/21 07:39:52;;;;;;;9.32;4.30;;;10.90;99.90;;;;;;5014885;28;20107;-74
2022/04/21 07:42:18;;;;;;;18.38;4.75;;;11.00;99.90;;;;;;5033254;28;20466;-74
2022/04/21 07:44:43;;;;;;;12.63;5.00;;;11.10;99.90;;;;;;5031679;28;20072;-74
2022/04/21 07:47:09;;;;;;;11.57;4.32;;;11.20;99.90;;;;;;5032086;28;20100;-78
2022/04/21 07:49:49;;;;;;;7.90;3.88;;;11.30;99.90;;;;;;5032491;28;20049;-74
2022/04/21 07:55:16;;;;;;;9.07;3.35;;;11.50;99.90;;;;;;5030657;28;20064;-74
2022/04/21 07:57:43;;;;;;;7.80;3.05;;;11.50;99.90;;;;;;5031035;28;20111;-74
2022/04/21 08:00:10;;;;;;;9.50;3.65;;;11.60;99.90;;;;;;5035332;28;20157;-75
2022/04/21 08:02:40;;;;;;;10.15;3.20;;;11.70;99.90;;;;;;5033711;28;20049;-74
2022/04/21 08:05:07;;;;;;;9.10;3.45;;;11.80;99.60;;;;;;5034844;28;20132;-75
2022/04/21 08:07:34;;;;;;;9.23;3.72;;;11.90;98.20;;;;;;5017266;28;20081;-74
2022/04/21 08:10:01;;;;;;;9.98;3.50;;;12.00;97.40;;;;;;5001763;28;20034;-75
2022/04/21 08:12:27;;;;;;;10.80;3.55;;;12.00;97.70;;;;;;5017679;28;20371;-74
2022/04/21 08:14:54;;;;;;;7.53;3.35;;;12.10;98.00;;;;;;5033703;28;20045;-75
2022/04/21 08:17:19;;;;;;;11.13;3.63;;;12.20;97.30;;;;;;5016768;28;20061;-75
2022/04/21 08:19:45;;;;;;;8.48;3.03;;;12.30;97.60;;;;;;5033659;28;20053;-76
2022/04/21 08:22:11;;;;;;;9.80;3.13;;;12.40;95.40;;;;;;5033405;28;20128;-75
2022/04/21 08:32:50;;;;;;;6.65;2.72;;;12.60;93.70;;;;;;5019744;28;20411;-75
2022/04/21 08:35:15;;;;;;;7.53;3.08;;;12.70;93.30;;;;;;5034565;28;20136;-75
2022/04/21 08:37:42;;;;;;;9.32;3.40;;;12.80;92.80;;;;;;5020228;28;20500;-75
2022/04/21 08:40:10;;;;;;;8.82;3.15;;;12.80;92.70;;;;;;5037339;28;20048;-75
2022/04/21 08:42:41;;;;;;;8.52;3.15;;;12.90;93.30;;;;;;5036557;28;20044;-79
2022/04/21 08:45:09;;;;;;;6.43;2.92;;;13.00;93.10;;;;;;5036424;28;20129;-75
2022/04/21 08:47:35;;;;;;;;;;;13.10;92.60;;;;;;5036576;28;20045;-74
2022/04/21 08:50:06;;;;;;;8.73;3.10;;;13.10;92.80;;;;;;5054270;28;19928;-75
2022/04/21 08:52:35;;;;;;;9.45;3.97;;;13.10;91.70;;;;;;5036030;28;20061;-76
2022/04/21 08:55:05;;;;;;;9.63;3.47;;;13.20;91.60;;;;;;5036420;28;20043;-75
2022/04/21 08:57:31;;;;;;;9.98;3.78;;;13.30;92.40;;;;;;5054079;28;20075;-75
2022/04/21 08:59:58;;;;;;;8.85;3.55;;;13.30;92.50;;;;;;5003680;28;20099;-74
2022/04/21 09:02:38;;;;;;;8.55;3.53;;;13.40;90.70;;;;;;5054015;28;20072;-75
2022/04/21 09:05:05;;;;;;;6.80;2.67;;;13.50;91.60;;;;;;5036868;28;20049;-75
2022/04/21 09:07:31;;;;;;;;;;;13.70;90.80;;;;;;5036700;28;20151;-75
2022/04/21 09:10:08;;;;;;;11.67;3.93;;;13.70;90.20;;;;;;5035284;28;19931;-74
2022/04/21 09:12:35;;;;;;;;;;;13.70;90.50;;;;;;5036623;28;20044;-77
2022/04/21 09:15:06;;;;;;;7.82;3.17;;;13.70;90.80;;;;;;5036994;28;20020;-76
2022/04/21 09:17:38;;;;;;;8.73;3.17;;;13.80;90.30;;;;;;5020212;28;20061;-75
2022/04/21 09:20:05;;;;;;;10.02;3.08;;;13.90;90.50;;;;;;5019546;28;20068;-76
2022/04/21 09:22:33;;;;;;;8.38;3.08;;;14.00;89.90;;;;;;5019871;28;20100;-74
2022/04/21 09:24:59;;;;;;;10.02;3.40;;;14.00;88.70;;;;;;5019265;28;20048;-74
2022/04/21 09:27:41;;;;;;;11.30;4.40;;;14.00;89.30;;;;;;5019451;28;20134;-75
2022/04/21 09:30:10;;;;;;;7.07;3.13;;;14.10;89.50;;;;;;5019622;28;20049;-79
2022/04/21 09:32:37;;;;;;;7.43;3.55;;;14.00;88.60;;;;;;5035741;28;20045;-75
2022/04/21 09:35:05;;;;;;;9.80;3.80;;;14.10;88.30;;;;;;5035568;28;20132;-75
2022/04/21 09:37:31;;;;;;;7.70;3.28;;;14.10;88.30;;;;;;5036195;28;20168;-78
2022/04/21 09:39:57;;;;;;;9.70;3.60;;;14.10;84.40;;;;;;5035172;28;20067;-75
2022/04/21 09:42:28;;;;;;;7.65;3.03;;;14.00;83.50;;;;;;5019209;28;20052;-76
2022/04/21 09:47:53;;;;;;;9.60;2.88;;;14.30;84.60;;;;;;5037958;28;20057;-77
2022/04/21 09:50:20;;;;;;;7.53;3.10;;;14.30;83.10;;;;;;5036620;28;20057;-76
2022/04/21 09:52:47;;;;;;;7.45;3.10;;;14.40;82.30;;;;;;5035346;28;20135;-74
2022/04/21 09:55:27;;;;;;;10.23;3.42;;;14.40;80.90;;;;;;5035839;28;20040;-75
2022/04/21 09:58:07;;;;;;;7.68;3.22;;;14.50;82.40;;;;;;5035568;28;20090;-79
2022/04/21 10:00:38;;;;;;;7.07;2.70;;;14.60;81.90;;;;;;5034648;28;20041;-75
2022/04/21 10:03:05;;;;;;;6.65;3.10;;;14.70;80.80;;;;;;5018667;28;20106;-74
2022/04/21 10:05:32;;;;;;;8.00;2.90;;;14.70;80.70;;;;;;5035740;28;20134;-74
2022/04/21 10:08:03;;;;;;;10.05;2.92;;;14.80;79.80;;;;;;5034689;28;20064;-75
2022/04/21 10:10:30;;;;;;;9.77;3.08;;;14.80;79.70;;;;;;5053510;28;20049;-77
2022/04/21 10:12:56;;;;;;;;;;;14.80;80.00;;;;;;5034803;28;20098;-75
2022/04/21 10:15:24;;;;;;;8.63;2.92;;;14.90;80.30;;;;;;5018872;28;19917;-75
2022/04/21 10:17:50;;;;;;;5.75;2.75;;;14.90;77.90;;;;;;5053112;28;20377;-76
2022/04/21 10:20:16;;;;;;;7.20;2.72;;;14.90;78.70;;;;;;5034500;28;20088;-75
2022/04/21 10:22:43;;;;;;;9.82;3.33;;;15.00;79.40;;;;;;5033534;28;20087;-75
2022/04/21 10:25:09;;;;;;;10.60;3.67;;;15.10;78.70;;;;;;5035001;28;20049;-74
2022/04/21 10:27:42;;;;;;;7.55;3.17;;;15.10;74.80;;;;;;5035338;28;20040;-75
2022/04/21 10:30:21;;;;;;;7.97;3.30;;;15.20;77.10;;;;;;5034545;28;20043;-76
2022/04/21 10:32:52;;;;;;;7.78;3.17;;;15.30;77.20;;;;;;5017861;28;20037;-76
2022/04/21 10:35:40;;;;;;;6.20;3.08;;;15.30;76.90;;;;;;5034703;28;20051;-74
2022/04/21 10:38:12;;;;;;;8.82;3.40;;;15.40;78.00;;;;;;5034729;28;20384;-76
2022/04/21 10:41:00;;;;;;;8.57;3.42;;;15.40;76.60;;;;;;5035721;28;20360;-75
2022/04/21 10:43:48;;;;;;;6.60;3.42;;;15.30;74.50;;;;;;5053376;28;20388;-76
2022/04/21 10:46:19;;;;;;;8.55;3.17;;;15.30;75.90;;;;;;5052259;28;20124;-76
2022/04/21 10:48:47;;;;;;;7.80;2.92;;;15.50;77.70;;;;;;5018924;28;20044;-76
2022/04/21 10:57:12;;;;;;;9.00;3.80;;;15.60;74.00;;;;;;5034610;28;20433;-76
2022/04/21 10:57:31;;;;;;;8.15;3.83;;;15.50;74.90;;;;;;5053137;28;20226;-76
2022/04/21 11:00:08;;;;;;;8.88;3.38;;;15.60;73.20;;;;;;5002912;28;20043;-76
2022/04/21 11:02:44;;;;;;;9.60;2.88;;;15.60;73.80;;;;;;5035148;28;20048;-80
2022/04/21 11:05:22;;;;;;;7.13;3.13;;;15.60;74.30;;;;;;5035159;28;20041;-76
2022/04/21 11:07:52;;;;;;;7.72;3.63;;;15.30;71.50;;;;;;5018620;28;20037;-76
2022/04/21 11:10:27;;;;;;;9.93;3.53;;;15.50;73.70;;;;;;5053008;28;20045;-75
2022/04/21 11:12:53;;;;;;;6.72;3.35;;;15.60;73.00;;;;;;5034746;28;20057;-76
2022/04/21 11:15:32;;;;;;;6.43;2.80;;;15.50;69.10;;;;;;5035049;28;20041;-78
2022/04/21 11:18:05;;;;;;;7.75;3.05;;;15.60;69.90;;;;;;5035510;28;20067;-78
2022/04/21 11:20:31;;;;;;;6.63;3.15;;;15.70;70.30;;;;;;5035038;28;20365;-75
2022/04/21 11:22:57;;;;;;;9.00;3.53;;;15.70;70.30;;;;;;5034586;28;20045;-79
2022/04/21 11:25:24;;;;;;;8.95;2.92;;;15.60;67.20;;;;;;5035563;28;20472;-76
2022/04/21 11:27:51;;;;;;;14.10;3.95;;;15.70;70.30;;;;;;5020281;28;20037;-76
2022/04/21 11:30:18;;;;;;;7.63;3.45;;;15.80;70.20;;;;;;5036574;28;20130;-76
2022/04/21 11:32:52;;;;;;;7.95;3.40;;;15.90;71.20;;;;;;5036809;28;20049;-76
2022/04/21 11:35:21;;;;;;;19.35;3.65;;;15.90;71.10;;;;;;5040288;28;20087;-76
2022/04/21 11:37:51;;;;;;;12.77;2.67;;;16.00;70.40;;;;;;5041093;28;20106;-77
2022/04/21 11:40:35;;;;;;;9.15;3.92;;;16.00;69.80;;;;;;5040127;28;20400;-76
2022/04/21 11:43:11;;;;;;;8.18;3.58;;;16.10;68.30;;;;;;5057643;28;20045;-77
2022/04/21 11:45:40;;;;;;;15.85;3.45;;;16.00;67.60;;;;;;5059097;28;20105;-78
2022/04/21 11:48:14;;;;;;;7.28;3.42;;;16.10;67.50;;;;;;5040841;28;20045;-77
2022/04/21 11:50:59;;;;;;;11.82;3.00;;;16.10;67.20;;;;;;5040945;28;20442;-81
2022/04/21 11:53:28;;;;;;;6.35;3.15;;;16.20;67.90;;;;;;5024745;28;20041;-78
2022/04/21 11:55:57;;;;;;;7.60;3.30;;;16.20;66.90;;;;;;5023276;28;20127;-79
2022/04/21 11:58:27;;;;;;;11.88;3.65;;;16.30;67.10;;;;;;5022910;28;20114;-77
2022/04/21 12:06:30;;;;;;;9.55;3.58;;;16.50;68.60;;;;;;5043020;28;20139;-76
2022/04/21 12:08:56;;;;;;;;;;;16.50;67.00;;;;;;5023143;28;20048;-76
2022/04/21 12:11:22;;;;;;;7.50;3.13;;;16.60;67.30;;;;;;5055479;28;20357;-76
2022/04/21 12:13:50;;;;;;;10.90;3.50;;;16.60;67.50;;;;;;5021243;28;20127;-75
2022/04/21 12:16:53;;;;;;;7.28;3.72;;;16.70;68.00;;;;;;5055060;28;20493;-75
2022/04/21 12:19:19;;;;;;;10.45;3.90;;;16.80;67.90;;;;;;4974383;28;20423;-76
2022/04/21 12:22:07;;;;;;;8.18;3.85;;;16.90;68.10;;;;;;5023756;28;20077;-77
2022/04/21 12:24:40;;;;;;;8.27;3.17;;;16.80;67.00;;;;;;5037956;28;20049;-76
2022/04/21 12:27:14;;;;;;;7.40;3.58;;;16.80;66.40;;;;;;5021196;28;20493;-76
2022/04/21 12:29:53;;;;;;;9.40;4.00;;;16.80;66.70;;;;;;5038338;28;20048;-79
2022/04/21 12:32:25;;;;;;;11.93;3.85;;;16.80;66.30;;;;;;5037197;28;20041;-77
2022/04/21 12:34:55;;;;;;;10.38;4.43;;;16.90;66.30;;;;;;5037461;28;20061;-76
2022/04/21 12:37:29;;;;;;;11.23;4.07;;;16.80;66.60;;;;;;5020660;28;20056;-75
2022/04/21 12:39:57;;;;;;;7.72;4.28;;;16.70;66.50;;;;;;5037806;28;20376;-77
2022/04/21 12:42:23;;;;;;;10.15;4.30;;;16.60;67.50;;;;;;5055431;28;20115;-76
2022/04/21 12:44:50;;;;;;;8.27;4.03;;;16.70;67.40;;;;;;5036997;28;20124;-76
2022/04/21 12:47:20;;;;;;;9.93;4.10;;;16.60;68.00;;;;;;5006270;28;20088;-80
2022/04/21 12:49:55;;;;;;;8.23;4.15;;;16.80;68.70;;;;;;5021265;28;20036;-76
2022/04/21 12:52:48;;;;;;;10.35;4.55;;;17.00;68.00;;;;;;5037308;28;20549;-77
2022/04/21 12:55:19;;;;;;;8.95;4.10;;;17.00;64.50;;;;;;5054886;28;20041;-76
2022/04/21 12:58:05;;;;;;;9.02;3.90;;;16.80;65.50;;;;;;5036689;28;20056;-75
2022/04/21 13:00:32;;;;;;;8.80;4.45;;;17.10;66.20;;;;;;5037396;28;20055;-77
2022/04/21 13:02:59;;;;;;;;;;;17.20;66.10;;;;;;5054512;28;20048;-76
2022/04/21 13:05:25;;;;;;;8.40;3.78;;;17.40;65.00;;;;;;5037548;28;19978;-78
2022/04/21 13:07:51;;;;;;;9.27;3.78;;;17.40;65.00;;;;;;5036597;28;20511;-76
2022/04/21 13:10:17;;;;;;;8.75;3.70;;;17.50;64.70;;;;;;5035699;28;20485;-76
2022/04/21 13:12:43;;;;;;;12.20;3.78;;;17.60;64.50;;;;;;5037228;28;20045;-78
2022/04/21 13:15:09;;;;;;;10.00;3.72;;;17.60;63.80;;;;;;5019855;28;20048;-76
2022/04/21 13:17:35;;;;;;;11.52;3.90;;;17.50;62.80;;;;;;5053923;28;20044;-75
2022/04/21 13:20:01;;;;;;;8.65;3.58;;;17.50;63.40;;;;;;5020581;28;20041;-76
2022/04/21 13:22:27;;;;;;;11.63;3.78;;;17.20;62.30;;;;;;5036105;28;20052;-76
2022/04/21 13:24:53;;;;;;;6.93;3.70;;;17.50;64.50;;;;;;5053932;28;20033;-77
2022/04/21 13:27:23;;;;;;;9.48;3.95;;;17.40;62.90;;;;;;5003658;28;20476;-78
2022/04/21 13:29:51;;;;;;;8.18;3.78;;;17.30;63.30;;;;;;5036043;28;20041;-77
2022/04/21 13:35:02;;;;;;;10.45;3.83;;;17.60;64.80;;;;;;5008399;28;20135;-76
2022/04/21 13:37:28;;;;;;;8.63;4.57;;;17.60;65.30;;;;;;5053466;28;20139;-77
2022/04/21 13:39:54;;;;;;;8.27;4.00;;;17.70;65.00;;;;;;5035931;28;20107;-77
2022/04/21 13:42:19;;;;;;;8.35;3.65;;;17.60;64.20;;;;;;5035736;28;20124;-77
2022/04/21 13:44:45;;;;;;;10.18;4.03;;;17.60;65.50;;;;;;5035692;28;20048;-77